Portada
METAR-TAF:

METAR-TAF

Aeroports :

Ürümqi, Xina

latitud: 43-54N, longitud: 087-28E, altitud: 654 m

Observació

L'informe es va fer fa 17 minuts, a les 19:00 UTC
Vent 8 kt del Sud
Temperatura 25°C
Humitat 19%
Pressió 1011 hPa
Visibilitat 10 km o més
sense núvols per sota de 1500 mi sense presència de cumulonimbus.

METAR: ZWWW 011900Z 17004MPS CAVOK 25/00 Q1011 NOSIG

Hora: 01:17 (19:17 UTC)

Pronòstic

L'informe es va fer fa 4 hores i 15 minuts, a les 15:02 UTC
Pronòstic vàlid del 01 a les 18 UTC al 02 a les 18 UTC
Vent 8 kt del Sud
Visibilitat 10 km o més
sense núvols per sota de 1500 mi sense presència de cumulonimbus.
Evolucionant progressivament
l' 02 a les 02 UTC al 02 a les 03 UTC
Vent 8 kt del Nord
Evolucionant progressivament
l' 02 a les 13 UTC al 02 a les 14 UTC
Vent 8 kt del Sud

TAF: ZWWW 011502Z 0118/0218 18004MPS CAVOK TX34/0209Z TN23/0123Z BECMG 0202/0203 36004MPS BECMG 0213/0214 18004MPS

Observacions i pronòstics meteorològics de més de 4000 aeroports (METAR i TAF).

Les estacions disponibles són els punts grocs i vermells al mapa.

Posi el ratolí al punt desitjat per veure el nom de l'estació.

Feu clic per veure les observacions i els pronòstics meteorològics.

Per canviar el mapa: feu clic els botons verds amb una creu de color negre per apropar; al botó verd amb un guió per allunyar la imatge; o en les fletxes verdes per a mapes adjacents.


METAR-TAF: